Time;durP1;ratioP1;P1;durP2;ratioP2;P2;SDS_P1;SDS_P2;PMS_P1;PMS_P2;Temp;Humidity;BMP_temperature;BMP_pressure;BME280_temperature;BME280_humidity;BME280_pressure;Samples;Min_cycle;Max_cycle;Signal;HPM_P1;HPM_P2
2022/06/12 00:00:46;;;;;;;;;;;;;;;;;;5007608;28;19910;-58
2022/06/12 00:03:12;;;;;;;;;;;;;;;;;;4991511;28;19910;-58
2022/06/12 00:05:45;;;;;;;;;;;;;;;;;;5007370;28;19910;-59
2022/06/12 00:10:59;;;;;;;;;;;;;;;;;;5073936;28;19912;-57
2022/06/12 00:13:31;;;;;;;;;;;;;;;;;;5108962;28;19969;-58
2022/06/12 00:16:01;;;;;;;;;;;;;;;;;;5107454;28;19967;-57
2022/06/12 00:18:30;;;;;;;;;;;;;;;;;;5089150;28;19908;-58
2022/06/12 00:23:45;;;;;;;;;;;;;;;;;;5108507;28;19978;-57
2022/06/12 00:26:15;;;;;;;;;;;;;;;;;;5107866;28;19916;-58
2022/06/12 00:28:43;;;;;;;;;;;;;;;;;;5107915;28;19916;-57
2022/06/12 00:31:23;;;;;;;;;;;;;;;;;;5107460;28;19912;-57
2022/06/12 00:36:42;;;;;;;;;;;;;;;;;;5107946;28;19920;-58
2022/06/12 00:39:23;;;;;;;;;;;;;;;;;;5108854;28;19912;-58
2022/06/12 00:41:55;;;;;;;;;;;;;;;;;;5107459;28;19915;-57
2022/06/12 00:44:24;;;;;;;;;;;;;;;;;;5108122;28;19908;-57
2022/06/12 00:47:08;;;;;;;;;;;;;;;;;;5088828;28;19947;-57
2022/06/12 00:49:37;;;;;;;;;;;;;;;;;;5086364;28;19912;-57
2022/06/12 00:52:06;;;;;;;;;;;;;;;;;;5108544;28;19908;-57
2022/06/12 00:54:42;;;;;;;;;;;;;;;;;;5095090;28;20301;-57
2022/06/12 00:57:14;;;;;;;;;;;;;;;;;;5108899;28;19908;-57
2022/06/12 00:59:42;;;;;;;;;;;;;;;;;;5108585;28;19912;-57
2022/06/12 01:02:34;;;;;;;;;;;;;;;;;;;;;
2022/06/12 01:07:49;;;;;;;;;;;;;;;;;;5108371;28;19958;-57
2022/06/12 01:10:16;;;;;;;;;;;;;;;;;;5107873;28;19971;-57
2022/06/12 01:12:57;;;;;;;;;;;;;;;;;;5109028;28;19920;-58
2022/06/12 01:15:26;;;;;;;;;;;;;;;;;;5107964;28;19916;-57
2022/06/12 01:18:05;;;;;;;;;;;;;;;;;;5108191;28;19912;-58
2022/06/12 01:20:40;;;;;;;;;;;;;;;;;;5108224;28;19930;-57
2022/06/12 01:23:16;;;;;;;;;;;;;;;;;;5089371;28;19915;-57
2022/06/12 01:25:51;;;;;;;;;;;;;;;;;;5088552;28;19908;-58
2022/06/12 01:28:33;;;;;;;;;;;;;;;;;;;;;
2022/06/12 01:36:46;;;;;;;;;;;;;;;;;;5049089;28;19924;-56
2022/06/12 01:42:16;;;;;;;;;;;;;;;;;;5087634;28;19971;-57
2022/06/12 01:44:45;;;;;;;;;;;;;;;;;;5069173;28;19915;-57
2022/06/12 01:52:59;;;;;;;;;;;;;;;;;;;;;
2022/06/12 01:55:25;;;;;;;;;;;;;;;;;;5080122;28;20365;-57
2022/06/12 01:57:52;;;;;;;;;;;;;;;;;;5086630;28;19909;-57
2022/06/12 02:00:25;;;;;;;;;;;;;;;;;;5087070;28;19964;-57
2022/06/12 02:03:01;;;;;;;;;;;;;;;;;;5088070;28;19909;-57
2022/06/12 02:05:37;;;;;;;;;;;;;;;;;;5087936;28;19944;-57
2022/06/12 02:08:05;;;;;;;;;;;;;;;;;;5087799;28;19976;-57
2022/06/12 02:10:49;;;;;;;;;;;;;;;;;;5069646;28;19912;-58
2022/06/12 02:16:02;;;;;;;;;;;;;;;;;;5087640;28;19915;-57
2022/06/12 02:21:18;;;;;;;;;;;;;;;;;;5087358;28;19971;-57
2022/06/12 02:23:50;;;;;;;;;;;;;;;;;;5087704;28;19917;-57
2022/06/12 02:26:28;;;;;;;;;;;;;;;;;;5068884;28;19912;-57
2022/06/12 02:29:10;;;;;;;;;;;;;;;;;;5067345;28;19964;-56
2022/06/12 02:31:42;;;;;;;;;;;;;;;;;;5086945;28;20301;-55
2022/06/12 02:40:13;;;;;;;;;;;;;;;;;;5034309;28;20353;-57
2022/06/12 02:45:25;;;;;;;;;;;;;;;;;;5107774;28;19915;-58
2022/06/12 02:48:00;;;;;;;;;;;;;;;;;;5107052;28;19912;-57
2022/06/12 02:50:37;;;;;;;;;;;;;;;;;;5089421;28;19916;-57
2022/06/12 02:53:04;;;;;;;;;;;;;;;;;;5107927;28;19914;-57
2022/06/12 02:55:46;;;;;;;;;;;;;;;;;;;;;
2022/06/12 02:58:25;;;;;;;;;;;;;;;;;;5107965;28;19939;-57
2022/06/12 03:01:01;;;;;;;;;;;;;;;;;;5107327;28;19908;-57
2022/06/12 03:06:50;;;;;;;;;;;;;;;;;;;;;
2022/06/12 03:12:20;;;;;;;;;;;;;;;;;;4997423;28;19910;-56
2022/06/12 03:14:59;;;;;;;;;;;;;;;;;;5005818;28;20319;-56
2022/06/12 03:20:25;;;;;;;;;;;;;;;;;;5005284;28;19917;-57
2022/06/12 03:22:59;;;;;;;;;;;;;;;;;;5005295;28;19964;-56
2022/06/12 03:36:38;;;;;;;;;;;;;;;;;;5094908;28;20352;-57
2022/06/12 03:39:05;;;;;;;;;;;;;;;;;;5091892;28;19920;-56
2022/06/12 03:41:31;;;;;;;;;;;;;;;;;;5093281;28;20269;-57
2022/06/12 03:47:04;;;;;;;;;;;;;;;;;;5037670;28;19912;-57
2022/06/12 03:49:39;;;;;;;;;;;;;;;;;;5095052;28;20410;-57
2022/06/12 03:52:14;;;;;;;;;;;;;;;;;;5073568;28;20503;-55
2022/06/12 03:54:48;;;;;;;;;;;;;;;;;;5098506;28;19912;-55
2022/06/12 04:02:46;;;;;;;;;;;;;;;;;;5098424;28;19914;-57
2022/06/12 04:05:12;;;;;;;;;;;;;;;;;;5098188;28;20215;-57
2022/06/12 04:07:39;;;;;;;;;;;;;;;;;;5097460;28;20399;-57
2022/06/12 04:10:05;;;;;;;;;;;;;;;;;;5097536;28;19926;-57
2022/06/12 04:12:31;;;;;;;;;;;;;;;;;;5098150;28;20364;-58
2022/06/12 04:14:57;;;;;;;;;;;;;;;;;;5098405;28;19915;-57
2022/06/12 04:17:24;;;;;;;;;;;;;;;;;;5078831;28;19908;-57
2022/06/12 04:20:18;;;;;;;;;;;;;;;;;;;;;
2022/06/12 04:22:50;;;;;;;;;;;;;;;;;;5085210;28;19908;-57
2022/06/12 04:25:16;;;;;;;;;;;;;;;;;;5098006;28;20302;-57
2022/06/12 04:27:42;;;;;;;;;;;;;;;;;;5097410;28;19956;-57
2022/06/12 04:30:11;;;;;;;;;;;;;;;;;;5097135;28;19935;-57
2022/06/12 04:32:43;;;;;;;;;;;;;;;;;;5078869;28;20381;-57
2022/06/12 04:35:09;;;;;;;;;;;;;;;;;;5098062;28;19912;-57
2022/06/12 04:40:40;;;;;;;;;;;;;;;;;;5055371;28;20000;-58
2022/06/12 04:45:57;;;;;;;;;;;;;;;;;;5027048;28;19912;-57
2022/06/12 04:48:23;;;;;;;;;;;;;;;;;;5054453;28;20359;-58
2022/06/12 04:50:49;;;;;;;;;;;;;;;;;;5053054;28;20409;-57
2022/06/12 04:53:18;;;;;;;;;;;;;;;;;;5055178;28;19987;-57
2022/06/12 04:58:58;;;;;;;;;;;;;;;;;;;;;
2022/06/12 05:01:35;;;;;;;;;;;;;;;;;;5076361;28;19909;-57
2022/06/12 05:04:01;;;;;;;;;;;;;;;;;;5054649;28;19932;-58
2022/06/12 05:06:31;;;;;;;;;;;;;;;;;;5054321;28;20286;-58
2022/06/12 05:09:01;;;;;;;;;;;;;;;;;;5054972;28;19920;-58
2022/06/12 05:11:36;;;;;;;;;;;;;;;;;;5054246;28;19932;-57
2022/06/12 05:14:05;;;;;;;;;;;;;;;;;;5054967;28;20015;-58
2022/06/12 05:16:39;;;;;;;;;;;;;;;;;;5054067;28;19909;-56
2022/06/12 05:21:44;;;;;;;;;;;;;;;;;;5060720;28;19912;-58
2022/06/12 05:29:53;;;;;;;;;;;;;;;;;;5053864;28;19995;-57
2022/06/12 05:32:21;;;;;;;;;;;;;;;;;;5053903;28;20337;-58
2022/06/12 05:35:00;;;;;;;;;;;;;;;;;;5052930;28;20466;-57
2022/06/12 05:37:29;;;;;;;;;;;;;;;;;;5052824;28;19920;-57
2022/06/12 05:45:48;;;;;;;;;;;;;;;;;;5042350;28;19909;-58
2022/06/12 05:48:22;;;;;;;;;;;;;;;;;;5066528;28;20250;-58
2022/06/12 05:51:00;;;;;;;;;;;;;;;;;;5056281;28;19912;-57
2022/06/12 05:53:29;;;;;;;;;;;;;;;;;;5056101;28;20453;-57
2022/06/12 05:56:10;;;;;;;;;;;;;;;;;;5056037;28;19908;-57
2022/06/12 06:01:37;;;;;;;;;;;;;;;;;;;;;
2022/06/12 06:04:09;;;;;;;;;;;;;;;;;;5052700;28;19909;-58
2022/06/12 06:06:47;;;;;;;;;;;;;;;;;;5069922;28;19913;-57
2022/06/12 06:09:29;;;;;;;;;;;;;;;;;;5056126;28;20390;-58
2022/06/12 06:11:57;;;;;;;;;;;;;;;;;;5072702;28;20500;-58
2022/06/12 06:14:31;;;;;;;;;;;;;;;;;;5072721;28;19909;-58
2022/06/12 06:19:58;;;;;;;;;;;;;;;;;;5072602;28;19912;-57
2022/06/12 06:22:33;;;;;;;;;;;;;;;;;;5049984;28;20409;-58
2022/06/12 06:25:19;;;;;;;;;;;;;;;;;;;;;
2022/06/12 06:27:48;;;;;;;;;;;;;;;;;;5073182;28;20284;-58
2022/06/12 06:33:31;;;;;;;;;;;;;;;;;;5052741;28;19920;-58
2022/06/12 06:36:08;;;;;;;;;;;;;;;;;;5083539;28;19909;-58
2022/06/12 06:38:43;;;;;;;;;;;;;;;;;;5087973;28;20026;-58
2022/06/12 06:41:19;;;;;;;;;;;;;;;;;;5073988;28;19915;-58
2022/06/12 06:46:33;;;;;;;;;;;;;;;;;;5095191;28;19915;-58
2022/06/12 06:49:04;;;;;;;;;;;;;;;;;;5052263;28;19913;-58
2022/06/12 06:51:53;;;;;;;;;;;;;;;;;;;;;
2022/06/12 06:54:26;;;;;;;;;;;;;;;;;;5053109;28;19909;-58
2022/06/12 06:59:39;;;;;;;;;;;;;;;;;;5052516;28;19939;-57
2022/06/12 07:02:10;;;;;;;;;;;;;;;;;;5052836;28;19912;-59
2022/06/12 07:04:54;;;;;;;;;;;;;;;;;;;;;
2022/06/12 07:07:33;;;;;;;;;;;;;;;;;;5052930;28;19912;-59
2022/06/12 07:12:49;;;;;;;;;;;;;;;;;;5052604;28;20278;-59
2022/06/12 07:15:24;;;;;;;;;;;;;;;;;;5052681;28;20465;-59
2022/06/12 07:17:59;;;;;;;;;;;;;;;;;;5019271;28;20463;-59
2022/06/12 07:31:59;;;;;;;;;;;;;;;;;;5027974;28;19917;-57
2022/06/12 07:34:25;;;;;;;;;;;;;;;;;;5027404;28;19917;-57
2022/06/12 07:36:51;;;;;;;;;;;;;;;;;;5022392;28;19910;-57
2022/06/12 07:39:28;;;;;;;;;;;;;;;;;;5025544;28;20435;-57
2022/06/12 07:44:58;;;;;;;;;;;;;;;;;;;;;
2022/06/12 07:47:28;;;;;;;;;;;;;;;;;;5087319;28;19976;-57
2022/06/12 07:52:51;;;;;;;;;;;;;;;;;;5087318;28;19966;-57
2022/06/12 07:55:35;;;;;;;;;;;;;;;;;;5087368;28;19972;-57
2022/06/12 07:58:29;;;;;;;;;;;;;;;;;;;;;
2022/06/12 08:00:56;;;;;;;;;;;;;;;;;;5086538;28;20405;-57
2022/06/12 08:03:23;;;;;;;;;;;;;;;;;;5086863;28;19995;-57
2022/06/12 08:06:10;;;;;;;;;;;;;;;;;;5086993;28;19909;-58
2022/06/12 08:08:56;;;;;;;;;;;;;;;;;;5086401;28;19912;-57
2022/06/12 08:11:25;;;;;;;;;;;;;;;;;;5086356;28;19920;-59
2022/06/12 08:13:51;;;;;;;;;;;;;;;;;;5083560;28;19930;-60
2022/06/12 08:16:35;;;;;;;;;;;;;;;;;;5083301;28;19909;-58
2022/06/12 08:19:01;;;;;;;;;;;;;;;;;;5086385;28;19908;-58
2022/06/12 08:21:28;;;;;;;;;;;;;;;;;;5082315;28;19908;-58
2022/06/12 08:23:54;;;;;;;;;;;;;;;;;;5077661;28;20363;-58
2022/06/12 08:26:21;;;;;;;;;;;;;;;;;;5077001;28;19999;-57
2022/06/12 08:29:00;;;;;;;;;;;;;;;;;;5076507;28;19913;-58
2022/06/12 08:34:15;;;;;;;;;;;;;;;;;;5076727;28;20304;-58
2022/06/12 08:39:34;;;;;;;;;;;;;;;;;;5085410;28;19927;-58
2022/06/12 08:42:07;;;;;;;;;;;;;;;;;;5078176;28;20366;-58
2022/06/12 08:44:35;;;;;;;;;;;;;;;;;;5096888;28;19954;-58
2022/06/12 08:49:52;;;;;;;;;;;;;;;;;;5096660;28;19934;-58
2022/06/12 08:52:18;;;;;;;;;;;;;;;;;;5096765;28;19919;-58
2022/06/12 08:54:53;;;;;;;;;;;;;;;;;;5096831;28;19975;-58
2022/06/12 08:57:26;;;;;;;;;;;;;;;;;;5096833;28;19912;-58
2022/06/12 08:59:52;;;;;;;;;;;;;;;;;;5097438;28;19951;-57
2022/06/12 09:02:25;;;;;;;;;;;;;;;;;;5096781;28;19908;-58
2022/06/12 09:04:55;;;;;;;;;;;;;;;;;;5096792;28;20430;-58
2022/06/12 09:07:24;;;;;;;;;;;;;;;;;;5077745;28;19966;-57
2022/06/12 09:10:03;;;;;;;;;;;;;;;;;;5074308;28;20349;-58
2022/06/12 09:12:38;;;;;;;;;;;;;;;;;;5079073;28;20368;-58
2022/06/12 09:15:07;;;;;;;;;;;;;;;;;;5078301;28;19955;-58
2022/06/12 09:20:34;;;;;;;;;;;;;;;;;;5096045;28;20417;-58
2022/06/12 09:23:23;;;;;;;;;;;;;;;;;;5097879;28;19961;-58
2022/06/12 09:25:55;;;;;;;;;;;;;;;;;;5078842;28;19912;-58
2022/06/12 09:28:30;;;;;;;;;;;;;;;;;;5073123;28;19916;-58
2022/06/12 09:31:07;;;;;;;;;;;;;;;;;;5096488;28;19908;-58
2022/06/12 09:33:36;;;;;;;;;;;;;;;;;;5078076;28;19908;-58
2022/06/12 09:36:02;;;;;;;;;;;;;;;;;;5079387;28;19908;-57
2022/06/12 09:38:37;;;;;;;;;;;;;;;;;;5099906;28;19959;-58
2022/06/12 09:41:07;;;;;;;;;;;;;;;;;;5093710;28;19935;-58
2022/06/12 09:43:48;;;;;;;;;;;;;;;;;;5095337;28;19997;-58
2022/06/12 09:49:00;;;;;;;;;;;;;;;;;;5094164;28;20011;-58
2022/06/12 09:51:38;;;;;;;;;;;;;;;;;;5076343;28;19951;-58
2022/06/12 09:54:12;;;;;;;;;;;;;;;;;;5095473;28;19908;-58
2022/06/12 09:56:38;;;;;;;;;;;;;;;;;;5077396;28;19960;-58
2022/06/12 09:59:20;;;;;;;;;;;;;;;;;;5093983;28;19986;-58
2022/06/12 10:04:57;;;;;;;;;;;;;;;;;;4993832;28;19909;-58
2022/06/12 10:07:42;;;;;;;;;;;;;;;;;;;;;
2022/06/12 10:10:14;;;;;;;;;;;;;;;;;;4991908;28;19913;-58
2022/06/12 10:12:52;;;;;;;;;;;;;;;;;;4977136;28;19918;-58
2022/06/12 10:15:36;;;;;;;;;;;;;;;;;;4976968;28;19910;-58
2022/06/12 10:18:11;;;;;;;;;;;;;;;;;;4993089;28;20004;-58
2022/06/12 10:20:40;;;;;;;;;;;;;;;;;;5093607;28;19908;-58
2022/06/12 10:28:47;;;;;;;;;;;;;;;;;;5094844;28;19923;-58
2022/06/12 10:34:06;;;;;;;;;;;;;;;;;;5094777;28;19908;-59
2022/06/12 10:36:32;;;;;;;;;;;;;;;;;;5071748;28;19915;-58
2022/06/12 10:41:45;;;;;;;;;;;;;;;;;;5094687;28;19928;-58
2022/06/12 10:44:29;;;;;;;;;;;;;;;;;;5094860;28;19912;-58
2022/06/12 10:47:23;;;;;;;;;;;;;;;;;;;;;
2022/06/12 10:49:50;;;;;;;;;;;;;;;;;;5079408;28;20303;-58
2022/06/12 10:57:50;;;;;;;;;;;;;;;;;;5094632;28;19996;-58
2022/06/12 11:00:26;;;;;;;;;;;;;;;;;;5096404;28;19915;-58
2022/06/12 11:03:13;;;;;;;;;;;;;;;;;;5099260;28;19909;-58
2022/06/12 11:05:42;;;;;;;;;;;;;;;;;;5097561;28;19947;-58
2022/06/12 11:08:10;;;;;;;;;;;;;;;;;;5079850;28;19912;-59
2022/06/12 11:10:39;;;;;;;;;;;;;;;;;;5097577;28;19918;-58
2022/06/12 11:13:05;;;;;;;;;;;;;;;;;;5080182;28;19919;-58
2022/06/12 11:15:32;;;;;;;;;;;;;;;;;;5098646;28;19908;-58
2022/06/12 11:17:58;;;;;;;;;;;;;;;;;;5098664;28;19912;-58
2022/06/12 11:20:37;;;;;;;;;;;;;;;;;;5098948;28;19909;-58
2022/06/12 11:25:52;;;;;;;;;;;;;;;;;;5098689;28;19908;-58
2022/06/12 11:28:18;;;;;;;;;;;;;;;;;;5080142;28;19919;-58
2022/06/12 11:30:48;;;;;;;;;;;;;;;;;;5080192;28;19917;-58
2022/06/12 11:36:02;;;;;;;;;;;;;;;;;;5098081;28;19969;-58
2022/06/12 11:41:26;;;;;;;;;;;;;;;;;;5039944;28;20354;-58
2022/06/12 11:43:55;;;;;;;;;;;;;;;;;;5077492;28;19943;-59
2022/06/12 11:46:39;;;;;;;;;;;;;;;;;;5079894;28;19930;-58
2022/06/12 11:49:20;;;;;;;;;;;;;;;;;;;;;
2022/06/12 11:51:52;;;;;;;;;;;;;;;;;;5064868;28;19912;-59
2022/06/12 11:54:27;;;;;;;;;;;;;;;;;;5058376;28;19948;-58
2022/06/12 11:59:44;;;;;;;;;;;;;;;;;;5014122;28;19914;-58
2022/06/12 12:02:19;;;;;;;;;;;;;;;;;;5067861;28;19908;-59
2022/06/12 12:07:36;;;;;;;;;;;;;;;;;;5077015;28;19974;-58
2022/06/12 12:12:55;;;;;;;;;;;;;;;;;;5075785;28;19908;-58
2022/06/12 12:18:28;;;;;;;;;;;;;;;;;;5013949;28;19937;-59
2022/06/12 12:20:58;;;;;;;;;;;;;;;;;;5014615;28;19910;-60
2022/06/12 12:23:27;;;;;;;;;;;;;;;;;;5046506;28;20373;-58
2022/06/12 12:26:08;;;;;;;;;;;;;;;;;;5047749;28;19908;-59
2022/06/12 12:28:34;;;;;;;;;;;;;;;;;;5059516;28;19982;-58
2022/06/12 12:31:16;;;;;;;;;;;;;;;;;;5076752;28;19951;-58
2022/06/12 12:42:16;;;;;;;;;;;;;;;;;;5097525;28;19989;-58
2022/06/12 12:44:43;;;;;;;;;;;;;;;;;;5078481;28;19908;-59
2022/06/12 12:47:12;;;;;;;;;;;;;;;;;;5095604;28;19931;-58
2022/06/12 12:49:53;;;;;;;;;;;;;;;;;;5060669;28;19912;-59
2022/06/12 12:52:19;;;;;;;;;;;;;;;;;;5097444;28;19939;-59
2022/06/12 12:54:58;;;;;;;;;;;;;;;;;;5096883;28;19916;-59
2022/06/12 12:57:33;;;;;;;;;;;;;;;;;;5097132;28;19908;-59
2022/06/12 13:00:02;;;;;;;;;;;;;;;;;;5078278;28;19915;-59
2022/06/12 13:02:42;;;;;;;;;;;;;;;;;;;;;
2022/06/12 13:08:21;;;;;;;;;;;;;;;;;;5096047;28;19918;-60
2022/06/12 13:13:24;;;;;;;;;;;;;;;;;;5096379;28;19909;-60
2022/06/12 13:15:55;;;;;;;;;;;;;;;;;;5096503;28;19908;-60
2022/06/12 13:24:09;;;;;;;;;;;;;;;;;;;;;
2022/06/12 13:26:35;;;;;;;;;;;;;;;;;;5095815;28;20004;-60
2022/06/12 13:29:17;;;;;;;;;;;;;;;;;;5096458;28;19912;-60
2022/06/12 13:31:57;;;;;;;;;;;;;;;;;;;;;
2022/06/12 13:34:23;;;;;;;;;;;;;;;;;;5092682;28;19998;-59
2022/06/12 13:37:12;;;;;;;;;;;;;;;;;;;;;
2022/06/12 13:39:48;;;;;;;;;;;;;;;;;;;;;
2022/06/12 13:42:17;;;;;;;;;;;;;;;;;;5080367;28;20019;-59
2022/06/12 13:44:45;;;;;;;;;;;;;;;;;;5095713;28;20258;-59
2022/06/12 13:47:11;;;;;;;;;;;;;;;;;;5096410;28;19953;-60
2022/06/12 13:49:52;;;;;;;;;;;;;;;;;;5094761;28;19912;-59
2022/06/12 13:52:31;;;;;;;;;;;;;;;;;;5077053;28;19909;-60
2022/06/12 13:54:57;;;;;;;;;;;;;;;;;;5075325;28;19908;-59
2022/06/12 13:57:35;;;;;;;;;;;;;;;;;;;;;
2022/06/12 14:00:10;;;;;;;;;;;;;;;;;;5095307;28;19908;-60
2022/06/12 14:05:44;;;;;;;;;;;;;;;;;;5094968;28;19933;-60
2022/06/12 14:08:22;;;;;;;;;;;;;;;;;;5076730;28;20345;-60
2022/06/12 14:10:56;;;;;;;;;;;;;;;;;;5076411;28;19912;-60
2022/06/12 14:13:31;;;;;;;;;;;;;;;;;;5076661;28;20384;-60
2022/06/12 14:15:59;;;;;;;;;;;;;;;;;;5094382;28;19908;-60
2022/06/12 14:18:44;;;;;;;;;;;;;;;;;;5095468;28;20399;-60
2022/06/12 14:24:03;;;;;;;;;;;;;;;;;;4992573;28;19916;-60
2022/06/12 14:26:40;;;;;;;;;;;;;;;;;;;;;
2022/06/12 14:29:16;;;;;;;;;;;;;;;;;;5065236;28;19916;-60
2022/06/12 14:31:42;;;;;;;;;;;;;;;;;;5075487;28;20010;-60
2022/06/12 14:34:17;;;;;;;;;;;;;;;;;;5074471;28;20284;-60
2022/06/12 14:36:53;;;;;;;;;;;;;;;;;;5094412;28;19908;-60
2022/06/12 14:39:33;;;;;;;;;;;;;;;;;;5094740;28;19954;-60
2022/06/12 14:42:05;;;;;;;;;;;;;;;;;;5051144;28;20008;-60
2022/06/12 14:44:34;;;;;;;;;;;;;;;;;;5035244;28;19932;-60
2022/06/12 14:47:00;;;;;;;;;;;;;;;;;;5051149;28;19971;-60
2022/06/12 14:49:31;;;;;;;;;;;;;;;;;;5051886;28;19917;-60
2022/06/12 14:52:02;;;;;;;;;;;;;;;;;;5052005;28;19909;-60
2022/06/12 14:54:43;;;;;;;;;;;;;;;;;;5049935;28;19909;-60
2022/06/12 15:00:03;;;;;;;;;;;;;;;;;;5052012;28;19913;-60
2022/06/12 15:02:41;;;;;;;;;;;;;;;;;;;;;
2022/06/12 15:05:10;;;;;;;;;;;;;;;;;;5049257;28;19919;-60
2022/06/12 15:07:36;;;;;;;;;;;;;;;;;;5073114;28;19919;-60
2022/06/12 15:10:04;;;;;;;;;;;;;;;;;;5072482;28;19913;-60
2022/06/12 15:12:37;;;;;;;;;;;;;;;;;;5074837;28;19944;-60
2022/06/12 15:15:06;;;;;;;;;;;;;;;;;;5072634;28;20029;-60
2022/06/12 15:17:41;;;;;;;;;;;;;;;;;;5074336;28;19909;-60
2022/06/12 15:23:18;;;;;;;;;;;;;;;;;;;;;
2022/06/12 15:31:13;;;;;;;;;;;;;;;;;;5074053;28;20282;-60
2022/06/12 15:33:48;;;;;;;;;;;;;;;;;;5073975;28;19913;-60
2022/06/12 15:36:14;;;;;;;;;;;;;;;;;;5074248;28;20006;-60
2022/06/12 15:38:40;;;;;;;;;;;;;;;;;;5074813;28;19947;-60
2022/06/12 15:41:25;;;;;;;;;;;;;;;;;;;;;
2022/06/12 15:44:00;;;;;;;;;;;;;;;;;;5094704;28;19908;-60
2022/06/12 15:46:30;;;;;;;;;;;;;;;;;;5075909;28;19908;-60
2022/06/12 15:49:01;;;;;;;;;;;;;;;;;;5097724;28;20281;-60
2022/06/12 15:51:31;;;;;;;;;;;;;;;;;;5097532;28;19962;-60
2022/06/12 15:53:58;;;;;;;;;;;;;;;;;;5097933;28;19977;-60
2022/06/12 15:56:26;;;;;;;;;;;;;;;;;;5097328;28;20358;-60
2022/06/12 15:58:52;;;;;;;;;;;;;;;;;;5079189;28;20395;-60
2022/06/12 16:01:21;;;;;;;;;;;;;;;;;;5078634;28;19908;-60
2022/06/12 16:03:56;;;;;;;;;;;;;;;;;;5078349;28;20257;-60
2022/06/12 16:06:23;;;;;;;;;;;;;;;;;;5097571;28;19914;-60
2022/06/12 16:09:04;;;;;;;;;;;;;;;;;;5096936;28;19912;-60
2022/06/12 16:11:46;;;;;;;;;;;;;;;;;;5078560;28;20450;-60
2022/06/12 16:17:13;;;;;;;;;;;;;;;;;;5078553;28;19909;-60
2022/06/12 16:19:45;;;;;;;;;;;;;;;;;;5073621;28;20296;-60
2022/06/12 16:22:22;;;;;;;;;;;;;;;;;;5078444;28;19931;-60
2022/06/12 16:24:48;;;;;;;;;;;;;;;;;;5095993;28;19908;-60
2022/06/12 16:27:23;;;;;;;;;;;;;;;;;;5078404;28;19915;-60
2022/06/12 16:30:00;;;;;;;;;;;;;;;;;;5097762;28;20026;-60
2022/06/12 16:32:29;;;;;;;;;;;;;;;;;;5097127;28;19977;-60
2022/06/12 16:34:59;;;;;;;;;;;;;;;;;;5096529;28;19912;-60
2022/06/12 16:37:33;;;;;;;;;;;;;;;;;;5078104;28;19916;-60
2022/06/12 16:40:12;;;;;;;;;;;;;;;;;;5096627;28;19908;-60
2022/06/12 16:42:42;;;;;;;;;;;;;;;;;;5096552;28;19927;-60
2022/06/12 16:45:28;;;;;;;;;;;;;;;;;;5095406;28;19908;-60
2022/06/12 16:48:04;;;;;;;;;;;;;;;;;;;;;
2022/06/12 16:50:34;;;;;;;;;;;;;;;;;;5096522;28;19912;-60
2022/06/12 16:53:01;;;;;;;;;;;;;;;;;;5077751;28;19915;-60
2022/06/12 16:55:36;;;;;;;;;;;;;;;;;;5078127;28;19954;-60
2022/06/12 16:58:08;;;;;;;;;;;;;;;;;;5075419;28;19908;-60
2022/06/12 17:00:37;;;;;;;;;;;;;;;;;;5096976;28;19908;-60
2022/06/12 17:03:03;;;;;;;;;;;;;;;;;;5078854;28;19908;-60
2022/06/12 17:08:45;;;;;;;;;;;;;;;;;;5051891;28;20330;-60
2022/06/12 17:11:16;;;;;;;;;;;;;;;;;;5077482;28;19999;-60
2022/06/12 17:13:49;;;;;;;;;;;;;;;;;;5095683;28;20346;-60
2022/06/12 17:16:18;;;;;;;;;;;;;;;;;;5096142;28;20314;-60
2022/06/12 17:21:32;;;;;;;;;;;;;;;;;;5095817;28;19922;-60
2022/06/12 17:24:04;;;;;;;;;;;;;;;;;;5095926;28;19908;-60
2022/06/12 17:26:33;;;;;;;;;;;;;;;;;;5095885;28;19908;-60
2022/06/12 17:31:51;;;;;;;;;;;;;;;;;;5095815;28;19916;-60
2022/06/12 17:34:19;;;;;;;;;;;;;;;;;;5096595;28;20012;-60
2022/06/12 17:36:49;;;;;;;;;;;;;;;;;;5095517;28;19912;-60
2022/06/12 17:39:23;;;;;;;;;;;;;;;;;;5095323;28;19912;-60
2022/06/12 17:41:52;;;;;;;;;;;;;;;;;;5095653;28;19927;-60
2022/06/12 17:44:20;;;;;;;;;;;;;;;;;;5095650;28;19915;-60
2022/06/12 17:46:49;;;;;;;;;;;;;;;;;;5077153;28;19908;-60
2022/06/12 17:57:44;;;;;;;;;;;;;;;;;;5047445;28;20349;-60
2022/06/12 18:00:16;;;;;;;;;;;;;;;;;;5076708;28;20266;-60
2022/06/12 18:02:46;;;;;;;;;;;;;;;;;;5076407;28;19958;-60
2022/06/12 18:08:03;;;;;;;;;;;;;;;;;;4993057;28;19914;-60
2022/06/12 18:13:14;;;;;;;;;;;;;;;;;;5094927;28;19915;-60
2022/06/12 18:21:11;;;;;;;;;;;;;;;;;;5094598;28;19914;-60
2022/06/12 18:23:46;;;;;;;;;;;;;;;;;;5073058;28;19915;-60
2022/06/12 18:26:12;;;;;;;;;;;;;;;;;;5076792;28;20269;-60
2022/06/12 18:28:41;;;;;;;;;;;;;;;;;;5094730;28;19920;-60
2022/06/12 18:31:35;;;;;;;;;;;;;;;;;;5031645;28;20142;-60
2022/06/12 18:36:53;;;;;;;;;;;;;;;;;;5094330;28;20415;-60
2022/06/12 18:39:22;;;;;;;;;;;;;;;;;;5095026;28;19908;-60
2022/06/12 18:41:51;;;;;;;;;;;;;;;;;;5094371;28;19923;-60
2022/06/12 18:47:16;;;;;;;;;;;;;;;;;;5094378;28;19951;-60
2022/06/12 18:49:51;;;;;;;;;;;;;;;;;;5076057;28;19916;-60
2022/06/12 18:52:18;;;;;;;;;;;;;;;;;;5075905;28;19908;-60
2022/06/12 18:55:05;;;;;;;;;;;;;;;;;;5074676;28;20006;-60
2022/06/12 18:57:33;;;;;;;;;;;;;;;;;;5095035;28;19908;-60
2022/06/12 19:00:12;;;;;;;;;;;;;;;;;;5076429;28;19908;-60
2022/06/12 19:08:37;;;;;;;;;;;;;;;;;;5094204;28;19924;-60
2022/06/12 19:11:19;;;;;;;;;;;;;;;;;;;;;
2022/06/12 19:19:24;;;;;;;;;;;;;;;;;;5081559;28;19915;-60
2022/06/12 19:21:52;;;;;;;;;;;;;;;;;;5078190;28;19908;-60
2022/06/12 19:24:40;;;;;;;;;;;;;;;;;;5080296;28;19908;-60
2022/06/12 19:27:15;;;;;;;;;;;;;;;;;;5097231;28;19916;-60
2022/06/12 19:29:49;;;;;;;;;;;;;;;;;;5080900;28;19916;-60
2022/06/12 19:32:18;;;;;;;;;;;;;;;;;;5080078;28;19938;-60
2022/06/12 19:34:47;;;;;;;;;;;;;;;;;;5099028;28;19912;-60
2022/06/12 19:42:50;;;;;;;;;;;;;;;;;;5097368;28;20020;-60
2022/06/12 19:45:16;;;;;;;;;;;;;;;;;;5097774;28;20281;-60
2022/06/12 19:47:43;;;;;;;;;;;;;;;;;;5080142;28;20342;-60
2022/06/12 19:50:14;;;;;;;;;;;;;;;;;;5079371;28;19931;-60
2022/06/12 19:52:42;;;;;;;;;;;;;;;;;;5099414;28;19908;-60
2022/06/12 19:55:14;;;;;;;;;;;;;;;;;;5097886;28;19912;-59
2022/06/12 19:57:43;;;;;;;;;;;;;;;;;;5097156;28;19908;-59
2022/06/12 20:00:25;;;;;;;;;;;;;;;;;;5076442;28;20320;-60
2022/06/12 20:03:07;;;;;;;;;;;;;;;;;;5078326;28;20303;-59
2022/06/12 20:08:21;;;;;;;;;;;;;;;;;;5097242;28;19923;-60
2022/06/12 20:11:08;;;;;;;;;;;;;;;;;;5075766;28;20316;-60
2022/06/12 20:13:43;;;;;;;;;;;;;;;;;;5079940;28;19909;-59
2022/06/12 20:16:30;;;;;;;;;;;;;;;;;;5078392;28;20250;-60
2022/06/12 20:18:58;;;;;;;;;;;;;;;;;;5096175;28;19919;-59
2022/06/12 20:21:27;;;;;;;;;;;;;;;;;;5078361;28;19916;-60
2022/06/12 20:23:56;;;;;;;;;;;;;;;;;;5097852;28;19909;-59
2022/06/12 20:26:33;;;;;;;;;;;;;;;;;;5096978;28;19952;-59
2022/06/12 20:29:02;;;;;;;;;;;;;;;;;;5078728;28;20376;-59
2022/06/12 20:31:31;;;;;;;;;;;;;;;;;;5078598;28;19909;-59
2022/06/12 20:34:00;;;;;;;;;;;;;;;;;;5096271;28;19961;-59
2022/06/12 20:39:26;;;;;;;;;;;;;;;;;;5097558;28;20346;-59
2022/06/12 20:41:55;;;;;;;;;;;;;;;;;;5096086;28;19935;-60
2022/06/12 20:44:39;;;;;;;;;;;;;;;;;;5096621;28;19943;-60
2022/06/12 20:47:13;;;;;;;;;;;;;;;;;;5053917;28;19913;-59
2022/06/12 20:52:24;;;;;;;;;;;;;;;;;;5054353;28;19978;-59
2022/06/12 20:55:03;;;;;;;;;;;;;;;;;;5037055;28;20358;-60
2022/06/12 21:00:27;;;;;;;;;;;;;;;;;;5013737;28;19938;-59
2022/06/12 21:05:42;;;;;;;;;;;;;;;;;;5056489;28;19909;-59
2022/06/12 21:08:23;;;;;;;;;;;;;;;;;;5057218;28;19916;-59
2022/06/12 21:10:56;;;;;;;;;;;;;;;;;;5056110;28;19936;-59
2022/06/12 21:16:10;;;;;;;;;;;;;;;;;;5039535;28;19931;-59
2022/06/12 21:21:28;;;;;;;;;;;;;;;;;;5082688;28;19954;-60
2022/06/12 21:23:58;;;;;;;;;;;;;;;;;;5101675;28;19912;-60
2022/06/12 21:26:30;;;;;;;;;;;;;;;;;;5082433;28;20269;-60
2022/06/12 21:28:56;;;;;;;;;;;;;;;;;;5101328;28;19916;-60
2022/06/12 21:34:06;;;;;;;;;;;;;;;;;;5100970;28;19931;-60
2022/06/12 21:36:33;;;;;;;;;;;;;;;;;;5100190;28;20310;-59
2022/06/12 21:39:11;;;;;;;;;;;;;;;;;;5080993;28;20369;-59
2022/06/12 21:41:40;;;;;;;;;;;;;;;;;;5103246;28;20325;-60
2022/06/12 21:44:15;;;;;;;;;;;;;;;;;;5074138;28;19935;-59
2022/06/12 21:46:51;;;;;;;;;;;;;;;;;;5082956;28;19908;-59
2022/06/12 21:49:27;;;;;;;;;;;;;;;;;;5081890;28;19944;-60
2022/06/12 21:54:38;;;;;;;;;;;;;;;;;;5082406;28;19916;-59
2022/06/12 21:57:17;;;;;;;;;;;;;;;;;;;;;
2022/06/12 21:59:58;;;;;;;;;;;;;;;;;;5081725;28;20283;-59
2022/06/12 22:02:29;;;;;;;;;;;;;;;;;;5078997;28;19952;-59
2022/06/12 22:04:57;;;;;;;;;;;;;;;;;;5082886;28;19908;-59
2022/06/12 22:07:33;;;;;;;;;;;;;;;;;;;;;
2022/06/12 22:10:03;;;;;;;;;;;;;;;;;;5081900;28;19995;-60
2022/06/12 22:12:32;;;;;;;;;;;;;;;;;;5081857;28;19908;-59
2022/06/12 22:14:59;;;;;;;;;;;;;;;;;;5082523;28;19919;-59
2022/06/12 22:17:27;;;;;;;;;;;;;;;;;;5082151;28;19958;-60
2022/06/12 22:19:58;;;;;;;;;;;;;;;;;;5080810;28;19999;-59
2022/06/12 22:22:40;;;;;;;;;;;;;;;;;;5083565;28;19920;-60
2022/06/12 22:25:13;;;;;;;;;;;;;;;;;;5083266;28;19958;-59
2022/06/12 22:27:42;;;;;;;;;;;;;;;;;;5082168;28;19962;-59
2022/06/12 22:30:09;;;;;;;;;;;;;;;;;;5083089;28;19920;-59
2022/06/12 22:32:42;;;;;;;;;;;;;;;;;;5083677;28;19953;-60
2022/06/12 22:41:25;;;;;;;;;;;;;;;;;;5030554;28;20003;-59
2022/06/12 22:46:40;;;;;;;;;;;;;;;;;;5034534;28;19916;-59